sensor_id;sensor_type;location;lat;lon;timestamp;P1;durP1;ratioP1;P2;durP2;ratioP2
30243;SDS011;64022;53.652;9.792;2023-04-24T00:01:38;10.83;;;7.60;;
30243;SDS011;64022;53.652;9.792;2023-04-24T00:04:04;10.77;;;7.30;;
30243;SDS011;64022;53.652;9.792;2023-04-24T00:06:31;9.85;;;7.72;;
30243;SDS011;64022;53.652;9.792;2023-04-24T00:09:02;10.88;;;7.88;;
30243;SDS011;64022;53.652;9.792;2023-04-24T00:11:28;10.38;;;8.15;;
30243;SDS011;64022;53.652;9.792;2023-04-24T00:13:54;8.85;;;7.18;;
30243;SDS011;64022;53.652;9.792;2023-04-24T00:16:21;9.93;;;7.70;;
30243;SDS011;64022;53.652;9.792;2023-04-24T00:18:47;10.32;;;7.65;;
30243;SDS011;64022;53.652;9.792;2023-04-24T00:21:13;9.73;;;7.77;;
30243;SDS011;64022;53.652;9.792;2023-04-24T00:23:39;11.68;;;8.15;;
30243;SDS011;64022;53.652;9.792;2023-04-24T00:26:05;11.70;;;8.50;;
30243;SDS011;64022;53.652;9.792;2023-04-24T00:28:31;9.77;;;7.37;;
30243;SDS011;64022;53.652;9.792;2023-04-24T00:30:56;9.20;;;7.13;;
30243;SDS011;64022;53.652;9.792;2023-04-24T00:33:22;9.60;;;7.47;;
30243;SDS011;64022;53.652;9.792;2023-04-24T00:35:47;10.33;;;7.67;;
30243;SDS011;64022;53.652;9.792;2023-04-24T00:38:13;9.80;;;8.00;;
30243;SDS011;64022;53.652;9.792;2023-04-24T00:40:38;12.63;;;7.80;;
30243;SDS011;64022;53.652;9.792;2023-04-24T00:43:04;11.23;;;7.70;;
30243;SDS011;64022;53.652;9.792;2023-04-24T00:45:30;9.47;;;7.93;;
30243;SDS011;64022;53.652;9.792;2023-04-24T00:47:56;11.10;;;8.20;;
30243;SDS011;64022;53.652;9.792;2023-04-24T00:50:23;10.27;;;7.68;;
30243;SDS011;64022;53.652;9.792;2023-04-24T00:52:49;10.23;;;8.05;;
30243;SDS011;64022;53.652;9.792;2023-04-24T00:55:15;11.35;;;8.27;;
30243;SDS011;64022;53.652;9.792;2023-04-24T00:57:41;12.17;;;8.23;;
30243;SDS011;64022;53.652;9.792;2023-04-24T01:00:07;10.67;;;8.23;;
30243;SDS011;64022;53.652;9.792;2023-04-24T01:02:35;11.35;;;8.40;;
30243;SDS011;64022;53.652;9.792;2023-04-24T01:05:04;9.93;;;7.40;;
30243;SDS011;64022;53.652;9.792;2023-04-24T01:07:32;10.65;;;8.05;;
30243;SDS011;64022;53.652;9.792;2023-04-24T01:09:57;11.83;;;8.33;;
30243;SDS011;64022;53.652;9.792;2023-04-24T01:12:23;11.47;;;8.30;;
30243;SDS011;64022;53.652;9.792;2023-04-24T01:14:49;10.30;;;7.87;;
30243;SDS011;64022;53.652;9.792;2023-04-24T01:17:14;9.83;;;7.80;;
30243;SDS011;64022;53.652;9.792;2023-04-24T01:19:40;11.33;;;7.93;;
30243;SDS011;64022;53.652;9.792;2023-04-24T01:22:15;11.13;;;8.40;;
30243;SDS011;64022;53.652;9.792;2023-04-24T01:24:42;14.10;;;8.35;;
30243;SDS011;64022;53.652;9.792;2023-04-24T01:27:08;12.07;;;8.55;;
30243;SDS011;64022;53.652;9.792;2023-04-24T01:29:35;8.98;;;7.28;;
30243;SDS011;64022;53.652;9.792;2023-04-24T01:32:02;11.87;;;8.57;;
30243;SDS011;64022;53.652;9.792;2023-04-24T01:34:28;11.82;;;8.05;;
30243;SDS011;64022;53.652;9.792;2023-04-24T01:36:54;10.87;;;8.10;;
30243;SDS011;64022;53.652;9.792;2023-04-24T01:39:21;11.63;;;8.25;;
30243;SDS011;64022;53.652;9.792;2023-04-24T01:44:14;10.13;;;7.95;;
30243;SDS011;64022;53.652;9.792;2023-04-24T01:46:40;11.27;;;8.67;;
30243;SDS011;64022;53.652;9.792;2023-04-24T01:49:06;9.53;;;7.03;;
30243;SDS011;64022;53.652;9.792;2023-04-24T01:51:32;12.43;;;8.27;;
30243;SDS011;64022;53.652;9.792;2023-04-24T01:53:57;11.07;;;8.03;;
30243;SDS011;64022;53.652;9.792;2023-04-24T01:56:23;10.93;;;8.60;;
30243;SDS011;64022;53.652;9.792;2023-04-24T01:58:49;9.93;;;7.57;;
30243;SDS011;64022;53.652;9.792;2023-04-24T02:01:17;9.98;;;7.95;;
30243;SDS011;64022;53.652;9.792;2023-04-24T02:03:45;12.25;;;8.35;;
30243;SDS011;64022;53.652;9.792;2023-04-24T02:06:10;10.03;;;7.63;;
30243;SDS011;64022;53.652;9.792;2023-04-24T02:08:36;10.70;;;7.77;;
30243;SDS011;64022;53.652;9.792;2023-04-24T02:11:01;9.30;;;7.63;;
30243;SDS011;64022;53.652;9.792;2023-04-24T02:13:27;9.07;;;7.83;;
30243;SDS011;64022;53.652;9.792;2023-04-24T02:15:53;10.77;;;7.67;;
30243;SDS011;64022;53.652;9.792;2023-04-24T02:18:18;11.33;;;8.63;;
30243;SDS011;64022;53.652;9.792;2023-04-24T02:20:44;10.70;;;8.53;;
30243;SDS011;64022;53.652;9.792;2023-04-24T02:23:10;10.87;;;8.40;;
30243;SDS011;64022;53.652;9.792;2023-04-24T02:25:36;11.13;;;8.57;;
30243;SDS011;64022;53.652;9.792;2023-04-24T02:28:01;11.80;;;8.13;;
30243;SDS011;64022;53.652;9.792;2023-04-24T02:30:27;10.07;;;7.80;;
30243;SDS011;64022;53.652;9.792;2023-04-24T02:32:53;10.20;;;7.87;;
30243;SDS011;64022;53.652;9.792;2023-04-24T02:35:20;10.63;;;8.65;;
30243;SDS011;64022;53.652;9.792;2023-04-24T02:37:45;10.97;;;8.67;;
30243;SDS011;64022;53.652;9.792;2023-04-24T02:40:11;11.50;;;8.83;;
30243;SDS011;64022;53.652;9.792;2023-04-24T02:42:36;11.07;;;8.80;;
30243;SDS011;64022;53.652;9.792;2023-04-24T02:45:02;11.27;;;8.37;;
30243;SDS011;64022;53.652;9.792;2023-04-24T02:47:28;11.50;;;8.60;;
30243;SDS011;64022;53.652;9.792;2023-04-24T02:49:54;10.60;;;8.17;;
30243;SDS011;64022;53.652;9.792;2023-04-24T02:52:19;10.50;;;8.63;;
30243;SDS011;64022;53.652;9.792;2023-04-24T02:54:45;10.80;;;7.63;;
30243;SDS011;64022;53.652;9.792;2023-04-24T02:57:10;10.10;;;8.07;;
30243;SDS011;64022;53.652;9.792;2023-04-24T02:59:36;10.73;;;8.47;;
30243;SDS011;64022;53.652;9.792;2023-04-24T03:02:01;11.80;;;8.60;;
30243;SDS011;64022;53.652;9.792;2023-04-24T03:04:27;13.43;;;8.03;;
30243;SDS011;64022;53.652;9.792;2023-04-24T03:06:52;11.07;;;8.20;;
30243;SDS011;64022;53.652;9.792;2023-04-24T03:09:19;10.50;;;7.47;;
30243;SDS011;64022;53.652;9.792;2023-04-24T03:11:48;9.60;;;7.85;;
30243;SDS011;64022;53.652;9.792;2023-04-24T03:14:14;11.38;;;8.05;;
30243;SDS011;64022;53.652;9.792;2023-04-24T03:16:40;11.97;;;8.40;;
30243;SDS011;64022;53.652;9.792;2023-04-24T03:19:05;10.40;;;7.93;;
30243;SDS011;64022;53.652;9.792;2023-04-24T03:21:31;12.23;;;8.37;;
30243;SDS011;64022;53.652;9.792;2023-04-24T03:23:57;25.97;;;9.30;;
30243;SDS011;64022;53.652;9.792;2023-04-24T03:26:22;12.50;;;8.60;;
30243;SDS011;64022;53.652;9.792;2023-04-24T03:28:48;13.63;;;8.03;;
30243;SDS011;64022;53.652;9.792;2023-04-24T03:31:13;13.03;;;8.60;;
30243;SDS011;64022;53.652;9.792;2023-04-24T03:33:40;12.93;;;8.55;;
30243;SDS011;64022;53.652;9.792;2023-04-24T03:36:06;13.93;;;7.90;;
30243;SDS011;64022;53.652;9.792;2023-04-24T03:38:31;18.90;;;8.77;;
30243;SDS011;64022;53.652;9.792;2023-04-24T03:40:57;11.97;;;8.47;;
30243;SDS011;64022;53.652;9.792;2023-04-24T03:43:22;13.03;;;7.97;;
30243;SDS011;64022;53.652;9.792;2023-04-24T03:45:48;14.03;;;8.37;;
30243;SDS011;64022;53.652;9.792;2023-04-24T03:48:13;12.63;;;8.20;;
30243;SDS011;64022;53.652;9.792;2023-04-24T03:50:39;18.53;;;8.77;;
30243;SDS011;64022;53.652;9.792;2023-04-24T03:53:05;10.53;;;7.93;;
30243;SDS011;64022;53.652;9.792;2023-04-24T03:55:30;15.27;;;8.83;;
30243;SDS011;64022;53.652;9.792;2023-04-24T03:57:56;15.43;;;8.73;;
30243;SDS011;64022;53.652;9.792;2023-04-24T04:00:21;14.80;;;8.23;;
30243;SDS011;64022;53.652;9.792;2023-04-24T04:02:47;14.23;;;8.57;;
30243;SDS011;64022;53.652;9.792;2023-04-24T04:05:12;13.60;;;8.33;;
30243;SDS011;64022;53.652;9.792;2023-04-24T04:07:38;12.57;;;7.77;;
30243;SDS011;64022;53.652;9.792;2023-04-24T04:10:04;12.60;;;8.10;;
30243;SDS011;64022;53.652;9.792;2023-04-24T04:12:31;15.18;;;8.63;;
30243;SDS011;64022;53.652;9.792;2023-04-24T04:14:57;13.87;;;8.00;;
30243;SDS011;64022;53.652;9.792;2023-04-24T04:17:23;13.10;;;8.67;;
30243;SDS011;64022;53.652;9.792;2023-04-24T04:19:48;15.63;;;8.23;;
30243;SDS011;64022;53.652;9.792;2023-04-24T04:22:14;12.30;;;8.37;;
30243;SDS011;64022;53.652;9.792;2023-04-24T04:24:39;13.50;;;8.83;;
30243;SDS011;64022;53.652;9.792;2023-04-24T04:27:05;18.23;;;8.17;;
30243;SDS011;64022;53.652;9.792;2023-04-24T04:29:31;11.20;;;8.07;;
30243;SDS011;64022;53.652;9.792;2023-04-24T04:31:57;12.00;;;8.50;;
30243;SDS011;64022;53.652;9.792;2023-04-24T04:34:23;12.90;;;8.00;;
30243;SDS011;64022;53.652;9.792;2023-04-24T04:36:49;14.97;;;7.10;;
30243;SDS011;64022;53.652;9.792;2023-04-24T04:39:15;13.43;;;7.70;;
30243;SDS011;64022;53.652;9.792;2023-04-24T04:41:41;12.13;;;7.95;;
30243;SDS011;64022;53.652;9.792;2023-04-24T04:44:07;13.27;;;8.70;;
30243;SDS011;64022;53.652;9.792;2023-04-24T04:46:33;10.73;;;7.95;;
30243;SDS011;64022;53.652;9.792;2023-04-24T04:49:00;14.18;;;8.18;;
30243;SDS011;64022;53.652;9.792;2023-04-24T04:51:26;11.80;;;7.88;;
30243;SDS011;64022;53.652;9.792;2023-04-24T04:53:52;11.23;;;8.13;;
30243;SDS011;64022;53.652;9.792;2023-04-24T04:56:18;12.83;;;7.70;;
30243;SDS011;64022;53.652;9.792;2023-04-24T04:58:43;12.23;;;7.53;;
30243;SDS011;64022;53.652;9.792;2023-04-24T05:01:09;15.73;;;7.97;;
30243;SDS011;64022;53.652;9.792;2023-04-24T05:03:35;10.60;;;7.93;;
30243;SDS011;64022;53.652;9.792;2023-04-24T05:06:00;16.60;;;7.73;;
30243;SDS011;64022;53.652;9.792;2023-04-24T05:08:27;13.52;;;8.00;;
30243;SDS011;64022;53.652;9.792;2023-04-24T05:10:52;12.93;;;8.03;;
30243;SDS011;64022;53.652;9.792;2023-04-24T05:13:18;11.73;;;8.00;;
30243;SDS011;64022;53.652;9.792;2023-04-24T05:15:44;12.47;;;8.17;;
30243;SDS011;64022;53.652;9.792;2023-04-24T05:18:10;12.93;;;8.00;;
30243;SDS011;64022;53.652;9.792;2023-04-24T05:20:35;9.10;;;7.07;;
30243;SDS011;64022;53.652;9.792;2023-04-24T05:23:01;12.00;;;6.77;;
30243;SDS011;64022;53.652;9.792;2023-04-24T05:25:26;11.80;;;7.40;;
30243;SDS011;64022;53.652;9.792;2023-04-24T05:27:52;12.00;;;8.30;;
30243;SDS011;64022;53.652;9.792;2023-04-24T05:30:18;9.23;;;7.27;;
30243;SDS011;64022;53.652;9.792;2023-04-24T05:32:44;12.52;;;8.13;;
30243;SDS011;64022;53.652;9.792;2023-04-24T05:35:10;11.90;;;7.18;;
30243;SDS011;64022;53.652;9.792;2023-04-24T05:37:36;8.73;;;6.97;;
30243;SDS011;64022;53.652;9.792;2023-04-24T05:40:02;12.80;;;7.87;;
30243;SDS011;64022;53.652;9.792;2023-04-24T05:42:30;11.38;;;7.47;;
30243;SDS011;64022;53.652;9.792;2023-04-24T05:44:55;12.83;;;7.60;;
30243;SDS011;64022;53.652;9.792;2023-04-24T05:47:21;13.63;;;7.80;;
30243;SDS011;64022;53.652;9.792;2023-04-24T05:49:47;12.70;;;7.83;;
30243;SDS011;64022;53.652;9.792;2023-04-24T05:52:13;9.87;;;7.33;;
30243;SDS011;64022;53.652;9.792;2023-04-24T05:54:38;11.27;;;7.30;;
30243;SDS011;64022;53.652;9.792;2023-04-24T05:57:04;9.50;;;7.23;;
30243;SDS011;64022;53.652;9.792;2023-04-24T05:59:33;12.05;;;7.25;;
30243;SDS011;64022;53.652;9.792;2023-04-24T06:01:59;8.57;;;6.70;;
30243;SDS011;64022;53.652;9.792;2023-04-24T06:04:25;9.67;;;7.43;;
30243;SDS011;64022;53.652;9.792;2023-04-24T06:06:50;11.77;;;7.30;;
30243;SDS011;64022;53.652;9.792;2023-04-24T06:09:20;8.45;;;5.78;;
30243;SDS011;64022;53.652;9.792;2023-04-24T06:11:49;8.77;;;6.20;;
30243;SDS011;64022;53.652;9.792;2023-04-24T06:14:17;11.75;;;6.70;;
30243;SDS011;64022;53.652;9.792;2023-04-24T06:16:43;7.90;;;6.07;;
30243;SDS011;64022;53.652;9.792;2023-04-24T06:19:09;10.67;;;6.53;;
30243;SDS011;64022;53.652;9.792;2023-04-24T06:21:35;8.70;;;6.10;;
30243;SDS011;64022;53.652;9.792;2023-04-24T06:24:00;9.20;;;6.77;;
30243;SDS011;64022;53.652;9.792;2023-04-24T06:26:27;8.68;;;6.25;;
30243;SDS011;64022;53.652;9.792;2023-04-24T06:28:53;7.90;;;6.17;;
30243;SDS011;64022;53.652;9.792;2023-04-24T06:31:19;8.23;;;6.00;;
30243;SDS011;64022;53.652;9.792;2023-04-24T06:33:45;10.85;;;6.57;;
30243;SDS011;64022;53.652;9.792;2023-04-24T06:36:11;11.17;;;6.20;;
30243;SDS011;64022;53.652;9.792;2023-04-24T06:38:37;6.95;;;5.88;;
30243;SDS011;64022;53.652;9.792;2023-04-24T06:41:02;9.10;;;6.33;;
30243;SDS011;64022;53.652;9.792;2023-04-24T06:43:30;8.73;;;6.53;;
30243;SDS011;64022;53.652;9.792;2023-04-24T06:45:56;7.78;;;6.13;;
30243;SDS011;64022;53.652;9.792;2023-04-24T06:48:22;8.23;;;6.10;;
30243;SDS011;64022;53.652;9.792;2023-04-24T06:50:49;7.18;;;5.82;;
30243;SDS011;64022;53.652;9.792;2023-04-24T06:53:14;8.63;;;6.17;;
30243;SDS011;64022;53.652;9.792;2023-04-24T06:55:40;8.90;;;6.33;;
30243;SDS011;64022;53.652;9.792;2023-04-24T06:58:06;8.83;;;5.63;;
30243;SDS011;64022;53.652;9.792;2023-04-24T07:00:31;8.80;;;5.90;;
30243;SDS011;64022;53.652;9.792;2023-04-24T07:02:57;10.43;;;5.97;;
30243;SDS011;64022;53.652;9.792;2023-04-24T07:05:22;8.33;;;6.10;;
30243;SDS011;64022;53.652;9.792;2023-04-24T07:07:48;7.57;;;5.80;;
30243;SDS011;64022;53.652;9.792;2023-04-24T07:10:15;7.43;;;5.90;;
30243;SDS011;64022;53.652;9.792;2023-04-24T07:12:41;7.67;;;5.47;;
30243;SDS011;64022;53.652;9.792;2023-04-24T07:15:07;8.33;;;5.60;;
30243;SDS011;64022;53.652;9.792;2023-04-24T07:17:33;7.22;;;5.80;;
30243;SDS011;64022;53.652;9.792;2023-04-24T07:19:59;7.90;;;5.88;;
30243;SDS011;64022;53.652;9.792;2023-04-24T07:22:25;9.97;;;6.53;;
30243;SDS011;64022;53.652;9.792;2023-04-24T07:24:51;8.90;;;5.80;;
30243;SDS011;64022;53.652;9.792;2023-04-24T07:27:16;8.33;;;5.37;;
30243;SDS011;64022;53.652;9.792;2023-04-24T07:29:42;7.53;;;5.50;;
30243;SDS011;64022;53.652;9.792;2023-04-24T07:32:08;6.47;;;5.30;;
30243;SDS011;64022;53.652;9.792;2023-04-24T07:34:34;7.70;;;6.13;;
30243;SDS011;64022;53.652;9.792;2023-04-24T07:37:00;7.00;;;5.90;;
30243;SDS011;64022;53.652;9.792;2023-04-24T07:39:26;7.32;;;5.60;;
30243;SDS011;64022;53.652;9.792;2023-04-24T07:41:52;7.47;;;5.32;;
30243;SDS011;64022;53.652;9.792;2023-04-24T07:44:18;7.70;;;5.60;;
30243;SDS011;64022;53.652;9.792;2023-04-24T07:46:43;7.37;;;5.60;;
30243;SDS011;64022;53.652;9.792;2023-04-24T07:49:09;12.63;;;6.10;;
30243;SDS011;64022;53.652;9.792;2023-04-24T07:51:35;7.20;;;5.70;;
30243;SDS011;64022;53.652;9.792;2023-04-24T07:54:03;9.07;;;5.63;;
30243;SDS011;64022;53.652;9.792;2023-04-24T07:56:31;6.97;;;5.28;;
30243;SDS011;64022;53.652;9.792;2023-04-24T07:58:56;7.27;;;5.67;;
30243;SDS011;64022;53.652;9.792;2023-04-24T08:01:22;7.23;;;5.57;;
30243;SDS011;64022;53.652;9.792;2023-04-24T08:03:47;8.63;;;5.17;;
30243;SDS011;64022;53.652;9.792;2023-04-24T08:06:13;8.20;;;5.53;;
30243;SDS011;64022;53.652;9.792;2023-04-24T08:08:39;6.33;;;5.20;;
30243;SDS011;64022;53.652;9.792;2023-04-24T08:11:04;7.40;;;6.13;;
30243;SDS011;64022;53.652;9.792;2023-04-24T08:13:30;6.80;;;5.13;;
30243;SDS011;64022;53.652;9.792;2023-04-24T08:15:56;7.83;;;5.37;;
30243;SDS011;64022;53.652;9.792;2023-04-24T08:18:22;7.57;;;5.22;;
30243;SDS011;64022;53.652;9.792;2023-04-24T08:20:47;6.27;;;5.00;;
30243;SDS011;64022;53.652;9.792;2023-04-24T08:23:13;6.23;;;5.07;;
30243;SDS011;64022;53.652;9.792;2023-04-24T08:25:38;6.83;;;5.47;;
30243;SDS011;64022;53.652;9.792;2023-04-24T08:28:05;7.27;;;5.90;;
30243;SDS011;64022;53.652;9.792;2023-04-24T08:30:31;6.88;;;5.28;;
30243;SDS011;64022;53.652;9.792;2023-04-24T08:32:57;7.47;;;5.40;;
30243;SDS011;64022;53.652;9.792;2023-04-24T08:35:23;6.20;;;4.70;;
30243;SDS011;64022;53.652;9.792;2023-04-24T08:37:48;7.93;;;5.17;;
30243;SDS011;64022;53.652;9.792;2023-04-24T08:40:15;6.77;;;5.20;;
30243;SDS011;64022;53.652;9.792;2023-04-24T08:42:41;7.28;;;5.18;;
30243;SDS011;64022;53.652;9.792;2023-04-24T08:45:09;9.23;;;5.15;;
30243;SDS011;64022;53.652;9.792;2023-04-24T08:47:38;5.97;;;4.47;;
30243;SDS011;64022;53.652;9.792;2023-04-24T08:50:05;7.20;;;5.78;;
30243;SDS011;64022;53.652;9.792;2023-04-24T08:52:32;6.28;;;5.28;;
30243;SDS011;64022;53.652;9.792;2023-04-24T08:54:59;6.82;;;5.10;;
30243;SDS011;64022;53.652;9.792;2023-04-24T08:57:26;6.50;;;4.97;;
30243;SDS011;64022;53.652;9.792;2023-04-24T08:59:52;7.23;;;4.90;;
30243;SDS011;64022;53.652;9.792;2023-04-24T09:02:19;6.07;;;4.85;;
30243;SDS011;64022;53.652;9.792;2023-04-24T09:07:12;6.97;;;5.28;;
30243;SDS011;64022;53.652;9.792;2023-04-24T09:09:39;6.43;;;5.00;;
30243;SDS011;64022;53.652;9.792;2023-04-24T09:12:06;6.97;;;5.03;;
30243;SDS011;64022;53.652;9.792;2023-04-24T09:14:34;7.13;;;5.13;;
30243;SDS011;64022;53.652;9.792;2023-04-24T09:17:01;6.93;;;5.18;;
30243;SDS011;64022;53.652;9.792;2023-04-24T09:19:27;6.20;;;5.00;;
30243;SDS011;64022;53.652;9.792;2023-04-24T09:21:52;7.07;;;5.70;;
30243;SDS011;64022;53.652;9.792;2023-04-24T09:24:19;7.17;;;5.17;;
30243;SDS011;64022;53.652;9.792;2023-04-24T09:26:47;6.40;;;5.20;;
30243;SDS011;64022;53.652;9.792;2023-04-24T09:29:14;5.95;;;5.13;;
30243;SDS011;64022;53.652;9.792;2023-04-24T09:31:42;6.97;;;4.72;;
30243;SDS011;64022;53.652;9.792;2023-04-24T09:34:08;7.93;;;5.38;;
30243;SDS011;64022;53.652;9.792;2023-04-24T09:36:37;7.50;;;5.57;;
30243;SDS011;64022;53.652;9.792;2023-04-24T09:39:06;7.75;;;5.80;;
30243;SDS011;64022;53.652;9.792;2023-04-24T09:41:43;6.63;;;5.00;;
30243;SDS011;64022;53.652;9.792;2023-04-24T09:44:12;6.60;;;5.22;;
30243;SDS011;64022;53.652;9.792;2023-04-24T09:46:40;9.93;;;5.63;;
30243;SDS011;64022;53.652;9.792;2023-04-24T09:49:13;7.95;;;5.80;;
30243;SDS011;64022;53.652;9.792;2023-04-24T09:51:42;5.93;;;4.93;;
30243;SDS011;64022;53.652;9.792;2023-04-24T09:54:18;7.07;;;5.67;;
30243;SDS011;64022;53.652;9.792;2023-04-24T09:56:50;7.32;;;6.00;;
30243;SDS011;64022;53.652;9.792;2023-04-24T09:59:19;5.55;;;4.85;;
30243;SDS011;64022;53.652;9.792;2023-04-24T10:01:45;6.45;;;5.60;;
30243;SDS011;64022;53.652;9.792;2023-04-24T10:04:15;7.32;;;5.50;;
30243;SDS011;64022;53.652;9.792;2023-04-24T10:06:49;6.90;;;5.60;;
30243;SDS011;64022;53.652;9.792;2023-04-24T10:09:16;7.40;;;6.07;;
30243;SDS011;64022;53.652;9.792;2023-04-24T10:11:43;7.07;;;5.65;;
30243;SDS011;64022;53.652;9.792;2023-04-24T10:14:13;7.75;;;6.45;;
30243;SDS011;64022;53.652;9.792;2023-04-24T10:16:40;7.00;;;5.72;;
30243;SDS011;64022;53.652;9.792;2023-04-24T10:19:06;7.90;;;5.70;;
30243;SDS011;64022;53.652;9.792;2023-04-24T10:21:32;8.85;;;6.15;;
30243;SDS011;64022;53.652;9.792;2023-04-24T10:23:59;8.23;;;6.38;;
30243;SDS011;64022;53.652;9.792;2023-04-24T10:26:28;7.40;;;6.35;;
30243;SDS011;64022;53.652;9.792;2023-04-24T10:28:54;8.53;;;6.67;;
30243;SDS011;64022;53.652;9.792;2023-04-24T10:31:23;8.85;;;6.45;;
30243;SDS011;64022;53.652;9.792;2023-04-24T10:33:49;8.50;;;6.07;;
30243;SDS011;64022;53.652;9.792;2023-04-24T10:36:16;7.18;;;6.00;;
30243;SDS011;64022;53.652;9.792;2023-04-24T10:38:43;7.90;;;6.13;;
30243;SDS011;64022;53.652;9.792;2023-04-24T10:41:11;7.47;;;6.10;;
30243;SDS011;64022;53.652;9.792;2023-04-24T10:43:44;8.10;;;6.18;;
30243;SDS011;64022;53.652;9.792;2023-04-24T10:46:10;8.90;;;6.97;;
30243;SDS011;64022;53.652;9.792;2023-04-24T10:48:44;8.73;;;6.78;;
30243;SDS011;64022;53.652;9.792;2023-04-24T10:51:21;7.68;;;6.55;;
30243;SDS011;64022;53.652;9.792;2023-04-24T10:53:49;8.80;;;6.93;;
30243;SDS011;64022;53.652;9.792;2023-04-24T10:56:15;9.13;;;7.22;;
30243;SDS011;64022;53.652;9.792;2023-04-24T10:58:43;7.75;;;6.95;;
30243;SDS011;64022;53.652;9.792;2023-04-24T11:06:28;8.43;;;6.43;;
30243;SDS011;64022;53.652;9.792;2023-04-24T11:09:05;9.20;;;7.10;;
30243;SDS011;64022;53.652;9.792;2023-04-24T11:11:37;8.52;;;7.03;;
30243;SDS011;64022;53.652;9.792;2023-04-24T11:14:08;10.32;;;7.30;;
30243;SDS011;64022;53.652;9.792;2023-04-24T11:16:36;8.95;;;6.88;;
30243;SDS011;64022;53.652;9.792;2023-04-24T11:19:25;9.45;;;7.20;;
30243;SDS011;64022;53.652;9.792;2023-04-24T11:21:55;8.95;;;7.22;;
30243;SDS011;64022;53.652;9.792;2023-04-24T11:32:26;10.27;;;7.53;;
30243;SDS011;64022;53.652;9.792;2023-04-24T11:37:33;9.52;;;7.50;;
30243;SDS011;64022;53.652;9.792;2023-04-24T11:40:06;10.48;;;7.80;;
30243;SDS011;64022;53.652;9.792;2023-04-24T11:42:34;9.90;;;8.18;;
30243;SDS011;64022;53.652;9.792;2023-04-24T11:45:17;9.90;;;7.65;;
30243;SDS011;64022;53.652;9.792;2023-04-24T11:47:43;9.68;;;7.63;;
30243;SDS011;64022;53.652;9.792;2023-04-24T11:52:37;9.32;;;7.53;;
30243;SDS011;64022;53.652;9.792;2023-04-24T11:55:06;9.95;;;7.50;;
30243;SDS011;64022;53.652;9.792;2023-04-24T11:57:56;10.70;;;8.48;;
30243;SDS011;64022;53.652;9.792;2023-04-24T12:00:24;9.85;;;8.13;;
30243;SDS011;64022;53.652;9.792;2023-04-24T12:02:51;10.55;;;7.70;;
30243;SDS011;64022;53.652;9.792;2023-04-24T12:05:27;9.82;;;8.43;;
30243;SDS011;64022;53.652;9.792;2023-04-24T12:07:55;10.98;;;9.23;;
30243;SDS011;64022;53.652;9.792;2023-04-24T12:10:21;12.13;;;8.80;;
30243;SDS011;64022;53.652;9.792;2023-04-24T12:12:49;11.48;;;8.82;;
30243;SDS011;64022;53.652;9.792;2023-04-24T12:15:16;12.05;;;8.80;;
30243;SDS011;64022;53.652;9.792;2023-04-24T12:20:09;10.15;;;7.82;;
30243;SDS011;64022;53.652;9.792;2023-04-24T12:22:43;9.77;;;7.82;;
30243;SDS011;64022;53.652;9.792;2023-04-24T12:25:16;12.93;;;8.90;;
30243;SDS011;64022;53.652;9.792;2023-04-24T12:27:43;11.63;;;8.23;;
30243;SDS011;64022;53.652;9.792;2023-04-24T12:30:11;11.10;;;8.32;;
30243;SDS011;64022;53.652;9.792;2023-04-24T12:32:45;11.73;;;9.00;;
30243;SDS011;64022;53.652;9.792;2023-04-24T12:35:13;14.40;;;9.02;;
30243;SDS011;64022;53.652;9.792;2023-04-24T12:37:43;11.52;;;9.25;;
30243;SDS011;64022;53.652;9.792;2023-04-24T12:40:09;15.60;;;9.20;;
30243;SDS011;64022;53.652;9.792;2023-04-24T12:42:41;11.13;;;9.50;;
30243;SDS011;64022;53.652;9.792;2023-04-24T12:45:11;10.43;;;8.50;;
30243;SDS011;64022;53.652;9.792;2023-04-24T12:47:38;11.45;;;9.02;;
30243;SDS011;64022;53.652;9.792;2023-04-24T12:52:30;10.93;;;8.80;;
30243;SDS011;64022;53.652;9.792;2023-04-24T12:54:57;10.13;;;9.03;;
30243;SDS011;64022;53.652;9.792;2023-04-24T12:57:23;11.05;;;8.75;;
30243;SDS011;64022;53.652;9.792;2023-04-24T12:59:50;11.20;;;8.65;;
30243;SDS011;64022;53.652;9.792;2023-04-24T13:02:15;12.37;;;8.97;;
30243;SDS011;64022;53.652;9.792;2023-04-24T13:04:45;10.85;;;8.60;;
30243;SDS011;64022;53.652;9.792;2023-04-24T13:07:12;11.38;;;8.63;;
30243;SDS011;64022;53.652;9.792;2023-04-24T13:09:38;12.57;;;9.32;;
30243;SDS011;64022;53.652;9.792;2023-04-24T13:12:04;11.63;;;8.97;;
30243;SDS011;64022;53.652;9.792;2023-04-24T13:14:30;11.73;;;9.43;;
30243;SDS011;64022;53.652;9.792;2023-04-24T13:16:56;13.05;;;9.23;;
30243;SDS011;64022;53.652;9.792;2023-04-24T13:19:23;11.87;;;9.90;;
30243;SDS011;64022;53.652;9.792;2023-04-24T13:21:50;12.20;;;9.70;;
30243;SDS011;64022;53.652;9.792;2023-04-24T13:24:16;12.27;;;9.53;;
30243;SDS011;64022;53.652;9.792;2023-04-24T13:26:42;10.90;;;9.07;;
30243;SDS011;64022;53.652;9.792;2023-04-24T13:29:07;11.90;;;9.80;;
30243;SDS011;64022;53.652;9.792;2023-04-24T13:31:33;13.60;;;10.20;;
30243;SDS011;64022;53.652;9.792;2023-04-24T13:33:59;12.23;;;9.80;;
30243;SDS011;64022;53.652;9.792;2023-04-24T13:36:24;11.73;;;9.93;;
30243;SDS011;64022;53.652;9.792;2023-04-24T13:38:50;11.83;;;9.53;;
30243;SDS011;64022;53.652;9.792;2023-04-24T13:41:16;12.67;;;9.87;;
30243;SDS011;64022;53.652;9.792;2023-04-24T13:43:41;11.97;;;9.10;;
30243;SDS011;64022;53.652;9.792;2023-04-24T13:46:07;11.27;;;9.23;;
30243;SDS011;64022;53.652;9.792;2023-04-24T13:48:33;11.50;;;9.07;;
30243;SDS011;64022;53.652;9.792;2023-04-24T13:50:59;13.27;;;9.67;;
30243;SDS011;64022;53.652;9.792;2023-04-24T13:53:24;11.87;;;9.37;;
30243;SDS011;64022;53.652;9.792;2023-04-24T13:55:50;12.50;;;9.73;;
30243;SDS011;64022;53.652;9.792;2023-04-24T13:58:16;12.80;;;9.73;;
30243;SDS011;64022;53.652;9.792;2023-04-24T14:00:41;13.23;;;9.70;;
30243;SDS011;64022;53.652;9.792;2023-04-24T14:03:07;11.73;;;9.17;;
30243;SDS011;64022;53.652;9.792;2023-04-24T14:05:32;12.10;;;9.60;;
30243;SDS011;64022;53.652;9.792;2023-04-24T14:07:58;12.90;;;9.83;;
30243;SDS011;64022;53.652;9.792;2023-04-24T14:10:23;13.53;;;11.00;;
30243;SDS011;64022;53.652;9.792;2023-04-24T14:12:50;13.32;;;10.38;;
30243;SDS011;64022;53.652;9.792;2023-04-24T14:15:16;12.93;;;10.07;;
30243;SDS011;64022;53.652;9.792;2023-04-24T14:17:41;13.33;;;10.10;;
30243;SDS011;64022;53.652;9.792;2023-04-24T14:20:07;11.70;;;8.67;;
30243;SDS011;64022;53.652;9.792;2023-04-24T14:22:34;14.43;;;10.68;;
30243;SDS011;64022;53.652;9.792;2023-04-24T14:24:59;13.17;;;10.60;;
30243;SDS011;64022;53.652;9.792;2023-04-24T14:27:25;13.27;;;9.87;;
30243;SDS011;64022;53.652;9.792;2023-04-24T14:29:51;12.25;;;10.10;;
30243;SDS011;64022;53.652;9.792;2023-04-24T14:32:17;13.47;;;11.07;;
30243;SDS011;64022;53.652;9.792;2023-04-24T14:34:43;14.13;;;10.87;;
30243;SDS011;64022;53.652;9.792;2023-04-24T14:37:08;14.70;;;11.00;;
30243;SDS011;64022;53.652;9.792;2023-04-24T14:39:34;13.63;;;11.00;;
30243;SDS011;64022;53.652;9.792;2023-04-24T14:42:00;14.77;;;10.47;;
30243;SDS011;64022;53.652;9.792;2023-04-24T14:44:26;13.55;;;10.45;;
30243;SDS011;64022;53.652;9.792;2023-04-24T14:46:52;13.90;;;10.77;;
30243;SDS011;64022;53.652;9.792;2023-04-24T14:49:18;13.48;;;10.52;;
30243;SDS011;64022;53.652;9.792;2023-04-24T14:51:43;14.13;;;10.77;;
30243;SDS011;64022;53.652;9.792;2023-04-24T14:54:09;14.00;;;10.50;;
30243;SDS011;64022;53.652;9.792;2023-04-24T14:56:34;14.67;;;11.27;;
30243;SDS011;64022;53.652;9.792;2023-04-24T14:59:00;15.20;;;11.53;;
30243;SDS011;64022;53.652;9.792;2023-04-24T15:01:26;15.07;;;12.53;;
30243;SDS011;64022;53.652;9.792;2023-04-24T15:03:51;15.73;;;11.50;;